M/V Manukai — WRGD — position and weather

sailwx.info

Track history (hours):
 
Tides and Currents Weather Stations Pressure Air Temp Water Temp Dewpoint Dewpoint Depression Visibility Wind Speed Wind Dir Waves Ship Positions

M/V Manukai

Owner: Matson Navigation Company, Inc., Oakland, CA. More information available from US FCC via Universal Licensing System and Coast Guard Vessel Documentation Center.

Last reported at 2014-Dec-14 12:00 UTC. Time now 2014-Dec-19 12:01 UTC.
Position N 46°00' E 158°12'.

Type: Ship (hazmat cat A). MMSI: 369296000.

Wind from 230 at 36 knots

Barometer 997.0 mb
Air temperature -1.0 ° C
Visibility: greater than 10.8 NM
Dewpoint -3.4 ° C
Water temperature 4.0 ° C

Date/timePositionNaut miles runAvg speedWind from/ knotsBaromVisibWave heightAir tempDewpointWater temp
2014-Dec-14 12:00N 46°00' E 158°12'27723.1 230 / 36997.010.8 -1.0-3.4 4.0
2014-Dec-14 00:00N 44°30' E 152°00'   280 / 151000.510.8 1.0-2.0-2.0 5.0
2014-Dec-10 23:26N 31°06' E 122°27'1011.5
2014-Dec-10 22:33N 31°08' E 122°15'1414.2
2014-Dec-10 21:33N 31°15' E 122°01'1515.1
2014-Dec-10 20:33N 31°19' E 121°44'9 8.8
2014-Dec-10 19:34N 31°23' E 121°34'0 0.0
2014-Dec-10 18:33N 31°23' E 121°34'0 0.0
2014-Dec-10 17:34N 31°23' E 121°34'0 0.0
2014-Dec-10 16:33N 31°23' E 121°34'0 0.0
2014-Dec-10 15:33N 31°23' E 121°34'0 0.0
2014-Dec-10 14:33N 31°23' E 121°34'0 0.0
2014-Dec-10 13:34N 31°23' E 121°34'0 0.0
2014-Dec-10 12:34N 31°23' E 121°34'0 0.0
2014-Dec-10 11:33N 31°23' E 121°34'0 0.0
2014-Dec-10 10:34N 31°23' E 121°34'0 0.0
2014-Dec-10 09:33N 31°23' E 121°34'0 0.0
2014-Dec-10 08:34N 31°23' E 121°34'0 0.0
2014-Dec-10 07:33N 31°23' E 121°34'6 5.6
2014-Dec-10 06:33N 31°21' E 121°41'10 9.7
2014-Dec-10 05:34N 31°16' E 121°51'1010.4
2014-Dec-10 04:33N 31°14' E 122°03'1111.0
2014-Dec-10 03:33N 31°09' E 122°14'1212.0
2014-Dec-10 02:34N 31°06' E 122°28'7 7.0
2014-Dec-10 01:33N 31°07' E 122°36'86 7.2
2014-Dec-09 13:33N 29°41' E 122°34'1515.5
2014-Dec-09 12:33N 29°46' E 122°18'1312.6
2014-Dec-09 11:33N 29°55' E 122°08'1413.6
2014-Dec-09 10:33N 29°57' E 121°52'2 0.9
2014-Dec-09 08:25N 29°57' E 121°50'0 0.0
2014-Dec-09 04:19N 29°57' E 121°50'0 0.0
2014-Dec-09 03:33N 29°57' E 121°50'4 3.7
2014-Dec-09 02:33N 29°58' E 121°54'1313.2
2014-Dec-09 01:34N 29°55' E 122°09'1212.3
2014-Dec-09 00:33N 29°46' E 122°18'1515.4
2014-Dec-08 23:34N 29°32' E 122°26'33918.8
2014-Dec-08 05:31N 24°38' E 119°17'2019.7
2014-Dec-08 04:29N 24°28' E 118°57'3618.8
2014-Dec-08 02:33N 24°17' E 118°19'1311.9
2014-Dec-08 01:27N 24°24' E 118°06'7 7.9
2014-Dec-08 00:32N 24°31' E 118°05'0 0.1
2014-Dec-07 23:14N 24°31' E 118°05'0 0.0
2014-Dec-07 22:27N 24°31' E 118°05'0 0.0
2014-Dec-07 21:32N 24°31' E 118°05'0 0.0
2014-Dec-07 20:32N 24°31' E 118°05'0 0.0
2014-Dec-07 19:33N 24°31' E 118°05'0 0.0
2014-Dec-07 18:33N 24°31' E 118°05'4 3.7
2014-Dec-07 17:33N 24°27' E 118°03'1212.2
2014-Dec-07 16:33N 24°19' E 118°12'12920.7
2014-Dec-07 10:20N 22°42' E 119°46'1721.8
2014-Dec-07 09:33N 22°30' E 119°58'2121.1
2014-Dec-07 08:33N 22°15' E 120°14'  
Track history (hours):
 
Tides and Currents Weather Stations Pressure Air Temp Water Temp Dewpoint Dewpoint Depression Visibility Wind Speed Wind Dir Waves Ship Positions

M/V Manukai

Owner: Matson Navigation Company, Inc., Oakland, CA. More information available from US FCC via Universal Licensing System and Coast Guard Vessel Documentation Center.

Last reported at 2014-Dec-14 12:00 UTC. Time now 2014-Dec-19 12:01 UTC.
Position N 46°00' E 158°12'.

Type: Ship (hazmat cat A). MMSI: 369296000.

Wind from 230 at 36 knots

Barometer 997.0 mb
Air temperature -1.0 ° C
Visibility: greater than 10.8 NM
Dewpoint -3.4 ° C
Water temperature 4.0 ° C

Date/timePositionNaut miles runAvg speedWind from/ knotsBaromVisibWave heightAir tempDewpointWater temp
2014-Dec-14 12:00N 46°00' E 158°12'27723.1 230 / 36997.010.8 -1.0-3.4 4.0
2014-Dec-14 00:00N 44°30' E 152°00'   280 / 151000.510.8 1.0-2.0-2.0 5.0
2014-Dec-10 23:26N 31°06' E 122°27'1011.5
2014-Dec-10 22:33N 31°08' E 122°15'1414.2
2014-Dec-10 21:33N 31°15' E 122°01'1515.1
2014-Dec-10 20:33N 31°19' E 121°44'9 8.8
2014-Dec-10 19:34N 31°23' E 121°34'0 0.0
2014-Dec-10 18:33N 31°23' E 121°34'0 0.0
2014-Dec-10 17:34N 31°23' E 121°34'0 0.0
2014-Dec-10 16:33N 31°23' E 121°34'0 0.0
2014-Dec-10 15:33N 31°23' E 121°34'0 0.0
2014-Dec-10 14:33N 31°23' E 121°34'0 0.0
2014-Dec-10 13:34N 31°23' E 121°34'0 0.0
2014-Dec-10 12:34N 31°23' E 121°34'0 0.0
2014-Dec-10 11:33N 31°23' E 121°34'0 0.0
2014-Dec-10 10:34N 31°23' E 121°34'0 0.0
2014-Dec-10 09:33N 31°23' E 121°34'0 0.0
2014-Dec-10 08:34N 31°23' E 121°34'0 0.0
2014-Dec-10 07:33N 31°23' E 121°34'6 5.6
2014-Dec-10 06:33N 31°21' E 121°41'10 9.7
2014-Dec-10 05:34N 31°16' E 121°51'1010.4
2014-Dec-10 04:33N 31°14' E 122°03'1111.0
2014-Dec-10 03:33N 31°09' E 122°14'1212.0
2014-Dec-10 02:34N 31°06' E 122°28'7 7.0
2014-Dec-10 01:33N 31°07' E 122°36'86 7.2
2014-Dec-09 13:33N 29°41' E 122°34'1515.5
2014-Dec-09 12:33N 29°46' E 122°18'1312.6
2014-Dec-09 11:33N 29°55' E 122°08'1413.6
2014-Dec-09 10:33N 29°57' E 121°52'2 0.9
2014-Dec-09 08:25N 29°57' E 121°50'0 0.0
2014-Dec-09 04:19N 29°57' E 121°50'0 0.0
2014-Dec-09 03:33N 29°57' E 121°50'4 3.7
2014-Dec-09 02:33N 29°58' E 121°54'1313.2
2014-Dec-09 01:34N 29°55' E 122°09'1212.3
2014-Dec-09 00:33N 29°46' E 122°18'1515.4
2014-Dec-08 23:34N 29°32' E 122°26'33918.8
2014-Dec-08 05:31N 24°38' E 119°17'2019.7
2014-Dec-08 04:29N 24°28' E 118°57'3618.8
2014-Dec-08 02:33N 24°17' E 118°19'1311.9
2014-Dec-08 01:27N 24°24' E 118°06'7 7.9
2014-Dec-08 00:32N 24°31' E 118°05'0 0.1
2014-Dec-07 23:14N 24°31' E 118°05'0 0.0
2014-Dec-07 22:27N 24°31' E 118°05'0 0.0
2014-Dec-07 21:32N 24°31' E 118°05'0 0.0
2014-Dec-07 20:32N 24°31' E 118°05'0 0.0
2014-Dec-07 19:33N 24°31' E 118°05'0 0.0
2014-Dec-07 18:33N 24°31' E 118°05'4 3.7
2014-Dec-07 17:33N 24°27' E 118°03'1212.2
2014-Dec-07 16:33N 24°19' E 118°12'12920.7
2014-Dec-07 10:20N 22°42' E 119°46'1721.8
2014-Dec-07 09:33N 22°30' E 119°58'2121.1
2014-Dec-07 08:33N 22°15' E 120°14'  

Dump ship's entire track history